Brindisi / Casale Airport LIBR

Flugplatz Daten

Name: Brindisi / Casale Airport

Ident: LIBR

Lat: 40,6576004

Long: 17,9470005

Platzhöhe: 47 ft

IataCode: BDS

City: Brindisi

Homepage: http://www.seap-puglia.it/default.asp?idlingua=2&idcontenuto=29

Metar

2021/08/05 14:20
LIBR 051420Z VRB05KT CAVOK 33/18 Q1007

Taf

2021/08/05 12:21
TAF LIBR 051100Z 0512/0612 07012KT 9999 FEW030
BECMG 0517/0520 29015KT
TEMPO 0521/0605 29015G25KT
BECMG 0605/0607 35015KT
Gewünschte Webcam nicht vorhanden? Dann fügen Sie eine hinzu. Sie wird dann so schnell wie möglich freigeschaltet
Url: Title: